SYN001 LSZH-LIMC
Flight info
| Callsign | SYN001 |
|---|---|
| Flight time | 1h 35m |
| Altitude | 22000 |
| Route | VEBIT T53 OBEDU/N0360F240 T53 GERSA/N0356F230 DCT SOSON DCT DEGAD DCT BASGO Z424 AKASU/N0337F190 Z424 RIXUV |
| Aircraft | BCS3/M-SBDE2E3GIRWXY/LB1 |
Departure
| Time | 2026-05-05 20:34 |
|---|---|
| Airport | Zürich Airport (LSZH) |
Arrival
| Time | 2026-05-05 22:09 |
|---|---|
| Airport | Milan Malpensa International Airport (LIMC) |
| Time | Latitude | Longitude | Altitude | Speed | Heading |
|---|---|---|---|---|---|
| 2026-05-05 20:03 | 47.46064 | 8.55299 | 1399 ft | 0 kts | 6° |
| 2026-05-05 20:23 | 47.46049 | 8.55296 | 1408 ft | 3 kts | 6° |
| 2026-05-05 20:23 | 47.46030 | 8.55292 | 1409 ft | 3 kts | 24° |
| 2026-05-05 20:23 | 47.46014 | 8.55275 | 1409 ft | 3 kts | 51° |
| 2026-05-05 20:23 | 47.46001 | 8.55252 | 1408 ft | 3 kts | 53° |
| 2026-05-05 20:24 | 47.45993 | 8.55223 | 1406 ft | 3 kts | 87° |
| 2026-05-05 20:24 | 47.45993 | 8.55209 | 1407 ft | 0 kts | 97° |
| 2026-05-05 20:28 | 47.45991 | 8.55232 | 1405 ft | 7 kts | 97° |
| 2026-05-05 20:28 | 47.45982 | 8.55331 | 1400 ft | 11 kts | 97° |
| 2026-05-05 20:28 | 47.45972 | 8.55445 | 1398 ft | 12 kts | 97° |
| 2026-05-05 20:29 | 47.45961 | 8.55566 | 1402 ft | 12 kts | 97° |
| 2026-05-05 20:29 | 47.45950 | 8.55694 | 1400 ft | 13 kts | 97° |
| 2026-05-05 20:29 | 47.45939 | 8.55819 | 1401 ft | 12 kts | 97° |
| 2026-05-05 20:29 | 47.45930 | 8.55945 | 1408 ft | 12 kts | 96° |
| 2026-05-05 20:30 | 47.45922 | 8.56066 | 1405 ft | 12 kts | 96° |
| 2026-05-05 20:30 | 47.45914 | 8.56186 | 1405 ft | 12 kts | 96° |
| 2026-05-05 20:30 | 47.45927 | 8.56294 | 1408 ft | 5 kts | 45° |
| 2026-05-05 20:30 | 47.45968 | 8.56317 | 1404 ft | 8 kts | 10° |
| 2026-05-05 20:31 | 47.46027 | 8.56328 | 1407 ft | 10 kts | 7° |
| 2026-05-05 20:31 | 47.46031 | 8.56329 | 1406 ft | 0 kts | 7° |
| 2026-05-05 20:31 | 47.46034 | 8.56329 | 1406 ft | 2 kts | 7° |
| 2026-05-05 20:32 | 47.46085 | 8.56337 | 1402 ft | 15 kts | 5° |
| 2026-05-05 20:32 | 47.46183 | 8.56342 | 1400 ft | 13 kts | 353° |
| 2026-05-05 20:32 | 47.46227 | 8.56314 | 1403 ft | 0 kts | 318° |
| 2026-05-05 20:33 | 47.46227 | 8.56313 | 1403 ft | 0 kts | 318° |
| 2026-05-05 20:33 | 47.46238 | 8.56299 | 1400 ft | 7 kts | 318° |
| 2026-05-05 20:33 | 47.46464 | 8.55986 | 1404 ft | 88 kts | 315° |
| 2026-05-05 20:34 | 47.47129 | 8.55074 | 1435 ft | 163 kts | 317° |
| 2026-05-05 20:34 | 47.47977 | 8.54018 | 2386 ft | 163 kts | 320° |
| 2026-05-05 20:34 | 47.48886 | 8.52966 | 3402 ft | 167 kts | 317° |
| 2026-05-05 20:34 | 47.49846 | 8.51928 | 4344 ft | 179 kts | 320° |
| 2026-05-05 20:35 | 47.50961 | 8.50844 | 4945 ft | 208 kts | 321° |
| 2026-05-05 20:35 | 47.52215 | 8.49647 | 5011 ft | 212 kts | 313° |
| 2026-05-05 20:35 | 47.52966 | 8.47861 | 5016 ft | 206 kts | 282° |
| 2026-05-05 20:35 | 47.53110 | 8.45752 | 5005 ft | 205 kts | 264° |
| 2026-05-05 20:36 | 47.52894 | 8.43658 | 5065 ft | 215 kts | 255° |
| 2026-05-05 20:36 | 47.52439 | 8.41507 | 6110 ft | 217 kts | 249° |
| 2026-05-05 20:36 | 47.51729 | 8.39507 | 7071 ft | 231 kts | 228° |
| 2026-05-05 20:36 | 47.50326 | 8.38195 | 7898 ft | 251 kts | 201° |
| 2026-05-05 20:37 | 47.48605 | 8.37584 | 8795 ft | 262 kts | 194° |
| 2026-05-05 20:37 | 47.46797 | 8.37065 | 9884 ft | 265 kts | 193° |
| 2026-05-05 20:37 | 47.44956 | 8.36504 | 10644 ft | 278 kts | 194° |
| 2026-05-05 20:37 | 47.43004 | 8.35885 | 11222 ft | 295 kts | 194° |
| 2026-05-05 20:38 | 47.40954 | 8.35232 | 11824 ft | 305 kts | 193° |
| 2026-05-05 20:38 | 47.38796 | 8.35252 | 12625 ft | 317 kts | 171° |
| 2026-05-05 20:38 | 47.36688 | 8.36391 | 13440 ft | 327 kts | 159° |
| 2026-05-05 20:38 | 47.34631 | 8.37862 | 14229 ft | 331 kts | 157° |
| 2026-05-05 20:39 | 47.32582 | 8.39382 | 15012 ft | 335 kts | 157° |
| 2026-05-05 20:39 | 47.30493 | 8.40939 | 15792 ft | 339 kts | 156° |
| 2026-05-05 20:39 | 47.28384 | 8.42509 | 16588 ft | 342 kts | 156° |
| 2026-05-05 20:39 | 47.26248 | 8.44099 | 17371 ft | 345 kts | 156° |
| 2026-05-05 20:40 | 47.24093 | 8.45703 | 18142 ft | 348 kts | 156° |
| 2026-05-05 20:40 | 47.21922 | 8.47319 | 18802 ft | 351 kts | 156° |
| 2026-05-05 20:40 | 47.19731 | 8.48950 | 19464 ft | 354 kts | 156° |
| 2026-05-05 20:40 | 47.17515 | 8.50572 | 20081 ft | 356 kts | 160° |
| 2026-05-05 20:41 | 47.15135 | 8.51473 | 20699 ft | 354 kts | 174° |
| 2026-05-05 20:41 | 47.12683 | 8.51924 | 21304 ft | 357 kts | 176° |
| 2026-05-05 20:41 | 47.10194 | 8.52298 | 21817 ft | 363 kts | 176° |
| 2026-05-05 20:41 | 47.07635 | 8.52669 | 21955 ft | 372 kts | 177° |
| 2026-05-05 20:42 | 47.05111 | 8.53037 | 21940 ft | 358 kts | 177° |
| 2026-05-05 20:42 | 47.02649 | 8.53395 | 21943 ft | 356 kts | 177° |
| 2026-05-05 20:42 | 47.00156 | 8.53754 | 21941 ft | 362 kts | 177° |
| 2026-05-05 20:42 | 46.97687 | 8.54111 | 21935 ft | 358 kts | 177° |
| 2026-05-05 20:43 | 46.95218 | 8.54469 | 21937 ft | 356 kts | 178° |
| 2026-05-05 20:43 | 46.92739 | 8.54826 | 21921 ft | 357 kts | 178° |
| 2026-05-05 20:43 | 46.90266 | 8.55182 | 21924 ft | 356 kts | 177° |
| 2026-05-05 20:43 | 46.87823 | 8.55535 | 21936 ft | 351 kts | 178° |
| 2026-05-05 20:44 | 46.85366 | 8.55886 | 21939 ft | 358 kts | 177° |
| 2026-05-05 20:44 | 46.82888 | 8.56241 | 21936 ft | 356 kts | 178° |
| 2026-05-05 20:44 | 46.80434 | 8.56595 | 21933 ft | 354 kts | 178° |
| 2026-05-05 20:44 | 46.77980 | 8.56947 | 21933 ft | 354 kts | 178° |
| 2026-05-05 20:45 | 46.73090 | 8.57645 | 21946 ft | 352 kts | 178° |
| 2026-05-05 20:45 | 46.70640 | 8.57993 | 21922 ft | 354 kts | 178° |
| 2026-05-05 20:45 | 46.68192 | 8.58341 | 21965 ft | 355 kts | 178° |
| 2026-05-05 20:46 | 46.65723 | 8.58691 | 21956 ft | 355 kts | 178° |
| 2026-05-05 20:46 | 46.63289 | 8.59040 | 21952 ft | 349 kts | 178° |
| 2026-05-05 20:46 | 46.60859 | 8.59387 | 21958 ft | 352 kts | 178° |
| 2026-05-05 20:46 | 46.58407 | 8.59735 | 21961 ft | 354 kts | 178° |
| 2026-05-05 20:47 | 46.55962 | 8.60082 | 21963 ft | 352 kts | 178° |
| 2026-05-05 20:47 | 46.53534 | 8.60427 | 21973 ft | 351 kts | 178° |
| 2026-05-05 20:47 | 46.51093 | 8.60772 | 21971 ft | 351 kts | 178° |
| 2026-05-05 20:47 | 46.48664 | 8.61117 | 21987 ft | 351 kts | 178° |
| 2026-05-05 20:48 | 46.46225 | 8.61460 | 21974 ft | 351 kts | 178° |
| 2026-05-05 20:48 | 46.43830 | 8.61167 | 21987 ft | 345 kts | 198° |
| 2026-05-05 20:48 | 46.41634 | 8.59794 | 21978 ft | 343 kts | 209° |
| 2026-05-05 20:48 | 46.39588 | 8.58118 | 21986 ft | 339 kts | 211° |
| 2026-05-05 20:49 | 46.37559 | 8.56350 | 21998 ft | 344 kts | 212° |
| 2026-05-05 20:49 | 46.35503 | 8.54524 | 21963 ft | 343 kts | 212° |
| 2026-05-05 20:49 | 46.33472 | 8.52718 | 21995 ft | 343 kts | 212° |
| 2026-05-05 20:49 | 46.31426 | 8.50895 | 21979 ft | 344 kts | 212° |
| 2026-05-05 20:50 | 46.29404 | 8.49092 | 21994 ft | 342 kts | 212° |
| 2026-05-05 20:50 | 46.28052 | 8.47887 | 21996 ft | 345 kts | 212° |
| 2026-05-05 20:50 | 46.25556 | 8.45093 | 21983 ft | 337 kts | 232° |
| 2026-05-05 20:50 | 46.24652 | 8.42029 | 22004 ft | 336 kts | 257° |
| 2026-05-05 20:51 | 46.24840 | 8.38602 | 22003 ft | 356 kts | 283° |
| 2026-05-05 20:51 | 46.26098 | 8.35503 | 21998 ft | 373 kts | 308° |
| 2026-05-05 20:51 | 46.28243 | 8.33344 | 21993 ft | 383 kts | 333° |
| 2026-05-05 20:51 | 46.30878 | 8.32635 | 21995 ft | 394 kts | 359° |
| 2026-05-05 20:52 | 46.33571 | 8.33537 | 21986 ft | 402 kts | 24° |
| 2026-05-05 20:52 | 46.35920 | 8.35689 | 21987 ft | 400 kts | 36° |
| 2026-05-05 20:52 | 46.38154 | 8.38091 | 21968 ft | 400 kts | 37° |
| 2026-05-05 20:52 | 46.39642 | 8.39685 | 21973 ft | 402 kts | 36° |
| 2026-05-05 20:53 | 46.41898 | 8.42064 | 21972 ft | 402 kts | 36° |
| 2026-05-05 20:53 | 46.44041 | 8.44643 | 21960 ft | 401 kts | 51° |
| 2026-05-05 20:53 | 46.45380 | 8.48120 | 21973 ft | 393 kts | 76° |
| 2026-05-05 20:53 | 46.45640 | 8.51980 | 21987 ft | 382 kts | 102° |
| 2026-05-05 20:54 | 46.44808 | 8.55549 | 21976 ft | 368 kts | 127° |
| 2026-05-05 20:54 | 46.43091 | 8.58134 | 21989 ft | 351 kts | 153° |
| 2026-05-05 20:54 | 46.40859 | 8.59288 | 21983 ft | 337 kts | 179° |
| 2026-05-05 20:54 | 46.38589 | 8.58824 | 21995 ft | 330 kts | 204° |
| 2026-05-05 20:55 | 46.36633 | 8.57091 | 22002 ft | 331 kts | 216° |
| 2026-05-05 20:55 | 46.34787 | 8.55093 | 21984 ft | 330 kts | 217° |
| 2026-05-05 20:55 | 46.32947 | 8.53115 | 21986 ft | 329 kts | 216° |
| 2026-05-05 20:55 | 46.31096 | 8.51164 | 21963 ft | 330 kts | 216° |
| 2026-05-05 20:56 | 46.29237 | 8.49230 | 21998 ft | 330 kts | 216° |
| 2026-05-05 20:56 | 46.27383 | 8.47314 | 21980 ft | 331 kts | 215° |
| 2026-05-05 20:56 | 46.25716 | 8.45013 | 21985 ft | 330 kts | 235° |
| 2026-05-05 20:56 | 46.24936 | 8.41869 | 22009 ft | 343 kts | 259° |
| 2026-05-05 20:57 | 46.25524 | 8.37326 | 21996 ft | 361 kts | 292° |
| 2026-05-05 20:57 | 46.26517 | 8.35320 | 21992 ft | 370 kts | 309° |
| 2026-05-05 20:57 | 46.28642 | 8.33219 | 21991 ft | 384 kts | 333° |
| 2026-05-05 20:57 | 46.31292 | 8.32468 | 21993 ft | 396 kts | 358° |
| 2026-05-05 20:58 | 46.33989 | 8.33268 | 21982 ft | 400 kts | 22° |
| 2026-05-05 20:58 | 46.36335 | 8.35431 | 21984 ft | 399 kts | 38° |
| 2026-05-05 20:58 | 46.38516 | 8.37936 | 21970 ft | 401 kts | 38° |
| 2026-05-05 20:58 | 46.40693 | 8.40482 | 21954 ft | 401 kts | 46° |
| 2026-05-05 20:59 | 46.42208 | 8.43792 | 21975 ft | 395 kts | 72° |
| 2026-05-05 20:59 | 46.42679 | 8.47642 | 21982 ft | 384 kts | 97° |
| 2026-05-05 20:59 | 46.42044 | 8.51288 | 21978 ft | 368 kts | 123° |
| 2026-05-05 20:59 | 46.40484 | 8.54053 | 21996 ft | 354 kts | 148° |
| 2026-05-05 21:00 | 46.38309 | 8.55498 | 21991 ft | 340 kts | 173° |
| 2026-05-05 21:00 | 46.36004 | 8.55342 | 21979 ft | 331 kts | 199° |
| 2026-05-05 21:00 | 46.33966 | 8.53873 | 21992 ft | 328 kts | 212° |
| 2026-05-05 21:00 | 46.32048 | 8.52035 | 21997 ft | 332 kts | 214° |
| 2026-05-05 21:01 | 46.30160 | 8.50133 | 21983 ft | 328 kts | 215° |
| 2026-05-05 21:01 | 46.28288 | 8.48222 | 21995 ft | 331 kts | 215° |
| 2026-05-05 21:01 | 46.26438 | 8.46246 | 21977 ft | 330 kts | 223° |
| 2026-05-05 21:01 | 46.25188 | 8.43475 | 21995 ft | 336 kts | 248° |
| 2026-05-05 21:02 | 46.24937 | 8.40092 | 22003 ft | 350 kts | 272° |
| 2026-05-05 21:02 | 46.25771 | 8.36729 | 21996 ft | 364 kts | 297° |
| 2026-05-05 21:02 | 46.27577 | 8.34087 | 21999 ft | 379 kts | 322° |
| 2026-05-05 21:02 | 46.30054 | 8.32681 | 21985 ft | 391 kts | 347° |
| 2026-05-05 21:03 | 46.32790 | 8.32804 | 21997 ft | 400 kts | 12° |
| 2026-05-05 21:03 | 46.35308 | 8.34456 | 21994 ft | 399 kts | 35° |
| 2026-05-05 21:03 | 46.37489 | 8.36867 | 21975 ft | 400 kts | 39° |
| 2026-05-05 21:03 | 46.39693 | 8.39352 | 21969 ft | 402 kts | 38° |
| 2026-05-05 21:04 | 46.41619 | 8.42233 | 21967 ft | 398 kts | 60° |
| 2026-05-05 21:04 | 46.42602 | 8.45914 | 21981 ft | 391 kts | 85° |
| 2026-05-05 21:04 | 46.42480 | 8.49751 | 21985 ft | 375 kts | 111° |
| 2026-05-05 21:04 | 46.41320 | 8.52999 | 21993 ft | 359 kts | 136° |
| 2026-05-05 21:05 | 46.39363 | 8.55121 | 21995 ft | 347 kts | 162° |
| 2026-05-05 21:05 | 46.37059 | 8.55715 | 21993 ft | 333 kts | 187° |
| 2026-05-05 21:05 | 46.34886 | 8.54732 | 21998 ft | 328 kts | 209° |
| 2026-05-05 21:05 | 46.32950 | 8.52970 | 21990 ft | 331 kts | 214° |
| 2026-05-05 21:06 | 46.31053 | 8.51063 | 21954 ft | 330 kts | 215° |
| 2026-05-05 21:06 | 46.29185 | 8.49152 | 21996 ft | 329 kts | 215° |
| 2026-05-05 21:06 | 46.27309 | 8.47228 | 21983 ft | 332 kts | 215° |
| 2026-05-05 21:06 | 46.25677 | 8.44921 | 21991 ft | 332 kts | 236° |
| 2026-05-05 21:07 | 46.24947 | 8.41736 | 22006 ft | 343 kts | 261° |
| 2026-05-05 21:07 | 46.25312 | 8.38290 | 21998 ft | 358 kts | 287° |
| 2026-05-05 21:07 | 46.26743 | 8.35288 | 21995 ft | 373 kts | 312° |
| 2026-05-05 21:07 | 46.28975 | 8.33367 | 21980 ft | 386 kts | 338° |
| 2026-05-05 21:08 | 46.31668 | 8.32901 | 21994 ft | 397 kts | 3° |
| 2026-05-05 21:08 | 46.34320 | 8.34040 | 21992 ft | 401 kts | 28° |
| 2026-05-05 21:08 | 46.36628 | 8.36289 | 21980 ft | 400 kts | 37° |
| 2026-05-05 21:08 | 46.38864 | 8.38712 | 21980 ft | 401 kts | 37° |
| 2026-05-05 21:09 | 46.41000 | 8.41287 | 21956 ft | 399 kts | 50° |
| 2026-05-05 21:09 | 46.42369 | 8.44746 | 21990 ft | 395 kts | 76° |
| 2026-05-05 21:09 | 46.42677 | 8.48560 | 21983 ft | 381 kts | 101° |
| 2026-05-05 21:09 | 46.41892 | 8.52158 | 21987 ft | 365 kts | 127° |
| 2026-05-05 21:10 | 46.40225 | 8.54762 | 21998 ft | 354 kts | 151° |
| 2026-05-05 21:10 | 46.38008 | 8.56018 | 21979 ft | 337 kts | 176° |
| 2026-05-05 21:10 | 46.35727 | 8.55669 | 21980 ft | 329 kts | 202° |
| 2026-05-05 21:10 | 46.33752 | 8.54022 | 21994 ft | 330 kts | 215° |
| 2026-05-05 21:11 | 46.31889 | 8.52064 | 21997 ft | 332 kts | 216° |
| 2026-05-05 21:11 | 46.30041 | 8.50108 | 21995 ft | 325 kts | 216° |
| 2026-05-05 21:11 | 46.28191 | 8.48171 | 21995 ft | 332 kts | 215° |
| 2026-05-05 21:11 | 46.26350 | 8.46149 | 21977 ft | 331 kts | 224° |
| 2026-05-05 21:12 | 46.25165 | 8.43310 | 22002 ft | 336 kts | 250° |
| 2026-05-05 21:12 | 46.25023 | 8.39902 | 22005 ft | 351 kts | 275° |
| 2026-05-05 21:12 | 46.25970 | 8.36648 | 22008 ft | 367 kts | 300° |
| 2026-05-05 21:12 | 46.27888 | 8.34146 | 21992 ft | 381 kts | 326° |
| 2026-05-05 21:13 | 46.30438 | 8.32973 | 21991 ft | 392 kts | 351° |
| 2026-05-05 21:13 | 46.33150 | 8.33380 | 21995 ft | 401 kts | 17° |
| 2026-05-05 21:13 | 46.35611 | 8.35285 | 22000 ft | 400 kts | 36° |
| 2026-05-05 21:13 | 46.37837 | 8.37709 | 21978 ft | 400 kts | 38° |
| 2026-05-05 21:14 | 46.40054 | 8.40146 | 21968 ft | 400 kts | 39° |
| 2026-05-05 21:14 | 46.41818 | 8.43221 | 21978 ft | 397 kts | 65° |
| 2026-05-05 21:14 | 46.42585 | 8.46988 | 21978 ft | 387 kts | 90° |
| 2026-05-05 21:14 | 46.42245 | 8.50748 | 21978 ft | 371 kts | 116° |
| 2026-05-05 21:15 | 46.40888 | 8.53824 | 21995 ft | 360 kts | 141° |
| 2026-05-05 21:15 | 46.38820 | 8.55669 | 21992 ft | 343 kts | 167° |
| 2026-05-05 21:15 | 46.36516 | 8.55940 | 21976 ft | 330 kts | 192° |
| 2026-05-05 21:15 | 46.34420 | 8.54664 | 22002 ft | 329 kts | 213° |
| 2026-05-05 21:16 | 46.32538 | 8.52753 | 21998 ft | 332 kts | 216° |
| 2026-05-05 21:16 | 46.30700 | 8.50803 | 21968 ft | 325 kts | 216° |
| 2026-05-05 21:16 | 46.28868 | 8.48877 | 21996 ft | 329 kts | 216° |
| 2026-05-05 21:16 | 46.26994 | 8.46928 | 21979 ft | 332 kts | 216° |
| 2026-05-05 21:17 | 46.25484 | 8.44444 | 21995 ft | 333 kts | 240° |
| 2026-05-05 21:17 | 46.24941 | 8.41180 | 22008 ft | 344 kts | 266° |
| 2026-05-05 21:17 | 46.25504 | 8.37765 | 22004 ft | 361 kts | 291° |
| 2026-05-05 21:17 | 46.27114 | 8.34903 | 21994 ft | 376 kts | 317° |
| 2026-05-05 21:18 | 46.29490 | 8.33213 | 21986 ft | 388 kts | 342° |
| 2026-05-05 21:18 | 46.32203 | 8.33054 | 21995 ft | 398 kts | 7° |
| 2026-05-05 21:18 | 46.34787 | 8.34483 | 21993 ft | 401 kts | 32° |
| 2026-05-05 21:18 | 46.37061 | 8.36828 | 21978 ft | 401 kts | 37° |
| 2026-05-05 21:19 | 46.39288 | 8.39258 | 21974 ft | 401 kts | 37° |
| 2026-05-05 21:19 | 46.41313 | 8.41986 | 21973 ft | 400 kts | 56° |
| 2026-05-05 21:19 | 46.42467 | 8.45604 | 21989 ft | 392 kts | 81° |
| 2026-05-05 21:19 | 46.42523 | 8.49451 | 21979 ft | 376 kts | 107° |
| 2026-05-05 21:20 | 46.41507 | 8.52838 | 22001 ft | 364 kts | 132° |
| 2026-05-05 21:20 | 46.39702 | 8.55136 | 21983 ft | 338 kts | 158° |
| 2026-05-05 21:20 | 46.37554 | 8.55928 | 21975 ft | 307 kts | 185° |
| 2026-05-05 21:20 | 46.35602 | 8.55181 | 21986 ft | 280 kts | 207° |
| 2026-05-05 21:21 | 46.33948 | 8.53809 | 21980 ft | 271 kts | 212° |
| 2026-05-05 21:21 | 46.32370 | 8.52315 | 21992 ft | 271 kts | 214° |
| 2026-05-05 21:21 | 46.30816 | 8.50778 | 21971 ft | 266 kts | 215° |
| 2026-05-05 21:21 | 46.29306 | 8.49249 | 21999 ft | 269 kts | 215° |
| 2026-05-05 21:22 | 46.27750 | 8.47666 | 21996 ft | 274 kts | 215° |
| 2026-05-05 21:22 | 46.26287 | 8.45973 | 21998 ft | 268 kts | 225° |
| 2026-05-05 21:22 | 46.25102 | 8.43858 | 21998 ft | 273 kts | 233° |
| 2026-05-05 21:22 | 46.24198 | 8.41421 | 21996 ft | 277 kts | 245° |
| 2026-05-05 21:23 | 46.23752 | 8.38745 | 21986 ft | 281 kts | 260° |
| 2026-05-05 21:23 | 46.23968 | 8.35888 | 21997 ft | 295 kts | 281° |
| 2026-05-05 21:23 | 46.24955 | 8.33229 | 21994 ft | 309 kts | 303° |
| 2026-05-05 21:23 | 46.26595 | 8.31189 | 21990 ft | 319 kts | 324° |
| 2026-05-05 21:24 | 46.28720 | 8.30052 | 21997 ft | 331 kts | 346° |
| 2026-05-05 21:24 | 46.31043 | 8.30019 | 21988 ft | 338 kts | 7° |
| 2026-05-05 21:24 | 46.33271 | 8.31116 | 21982 ft | 342 kts | 28° |
| 2026-05-05 21:24 | 46.35131 | 8.33236 | 21995 ft | 339 kts | 48° |
| 2026-05-05 21:25 | 46.36749 | 8.35714 | 21972 ft | 340 kts | 46° |
| 2026-05-05 21:25 | 46.38498 | 8.38053 | 21977 ft | 342 kts | 41° |
| 2026-05-05 21:25 | 46.40307 | 8.40278 | 21958 ft | 340 kts | 46° |
| 2026-05-05 21:25 | 46.41684 | 8.43036 | 21980 ft | 338 kts | 68° |
| 2026-05-05 21:26 | 46.42356 | 8.46244 | 21982 ft | 328 kts | 89° |
| 2026-05-05 21:26 | 46.42252 | 8.49456 | 21971 ft | 314 kts | 110° |
| 2026-05-05 21:26 | 46.41422 | 8.52282 | 21995 ft | 307 kts | 131° |
| 2026-05-05 21:26 | 46.39976 | 8.54458 | 21990 ft | 294 kts | 151° |
| 2026-05-05 21:27 | 46.38184 | 8.55631 | 21984 ft | 277 kts | 173° |
| 2026-05-05 21:27 | 46.36294 | 8.55685 | 21962 ft | 270 kts | 195° |
| 2026-05-05 21:27 | 46.34587 | 8.54666 | 22007 ft | 269 kts | 212° |
| 2026-05-05 21:27 | 46.33011 | 8.53130 | 21997 ft | 274 kts | 215° |
| 2026-05-05 21:28 | 46.31475 | 8.51540 | 21983 ft | 269 kts | 216° |
| 2026-05-05 21:28 | 46.29985 | 8.49993 | 22001 ft | 262 kts | 215° |
| 2026-05-05 21:28 | 46.28463 | 8.48419 | 21998 ft | 273 kts | 215° |
| 2026-05-05 21:28 | 46.26913 | 8.46817 | 21954 ft | 268 kts | 218° |
| 2026-05-05 21:29 | 46.25848 | 8.44632 | 22003 ft | 276 kts | 249° |
| 2026-05-05 21:29 | 46.25786 | 8.41812 | 22005 ft | 292 kts | 278° |
| 2026-05-05 21:29 | 46.26814 | 8.39224 | 22001 ft | 310 kts | 309° |
| 2026-05-05 21:29 | 46.28724 | 8.37603 | 22005 ft | 331 kts | 340° |
| 2026-05-05 21:30 | 46.31035 | 8.37449 | 21998 ft | 339 kts | 9° |
| 2026-05-05 21:30 | 46.33149 | 8.38809 | 22004 ft | 339 kts | 34° |
| 2026-05-05 21:30 | 46.35064 | 8.40860 | 22000 ft | 344 kts | 38° |
| 2026-05-05 21:30 | 46.36963 | 8.42937 | 21958 ft | 340 kts | 37° |
| 2026-05-05 21:31 | 46.38791 | 8.45144 | 21962 ft | 342 kts | 53° |
| 2026-05-05 21:31 | 46.39830 | 8.48149 | 21981 ft | 330 kts | 83° |
| 2026-05-05 21:31 | 46.39784 | 8.51361 | 21969 ft | 312 kts | 114° |
| 2026-05-05 21:31 | 46.38707 | 8.53978 | 21999 ft | 298 kts | 144° |
| 2026-05-05 21:32 | 46.36942 | 8.55354 | 21996 ft | 282 kts | 174° |
| 2026-05-05 21:32 | 46.35128 | 8.55147 | 21993 ft | 261 kts | 205° |
| 2026-05-05 21:32 | 46.33539 | 8.53764 | 22018 ft | 275 kts | 215° |
| 2026-05-05 21:32 | 46.31981 | 8.52123 | 21993 ft | 274 kts | 216° |
| 2026-05-05 21:33 | 46.30472 | 8.50529 | 21961 ft | 264 kts | 216° |
| 2026-05-05 21:33 | 46.28784 | 8.49418 | 22008 ft | 281 kts | 193° |
| 2026-05-05 21:33 | 46.26741 | 8.49507 | 22013 ft | 311 kts | 170° |
| 2026-05-05 21:33 | 46.24691 | 8.50916 | 22014 ft | 345 kts | 149° |
| 2026-05-05 21:34 | 46.22997 | 8.53469 | 21721 ft | 357 kts | 130° |
| 2026-05-05 21:34 | 46.21729 | 8.56629 | 21111 ft | 368 kts | 123° |
| 2026-05-05 21:34 | 46.20529 | 8.59914 | 20975 ft | 372 kts | 123° |
| 2026-05-05 21:34 | 46.19314 | 8.63252 | 20968 ft | 376 kts | 123° |
| 2026-05-05 21:35 | 46.18117 | 8.66545 | 20981 ft | 375 kts | 123° |
| 2026-05-05 21:35 | 46.16886 | 8.69929 | 20981 ft | 376 kts | 123° |
| 2026-05-05 21:35 | 46.15688 | 8.73218 | 20989 ft | 374 kts | 123° |
| 2026-05-05 21:35 | 46.14285 | 8.76330 | 20994 ft | 368 kts | 138° |
| 2026-05-05 21:36 | 46.12289 | 8.78532 | 20998 ft | 357 kts | 158° |
| 2026-05-05 21:36 | 46.09949 | 8.79640 | 20481 ft | 353 kts | 174° |
| 2026-05-05 21:36 | 46.07514 | 8.80119 | 19856 ft | 352 kts | 176° |
| 2026-05-05 21:36 | 46.05097 | 8.80526 | 19340 ft | 348 kts | 176° |
| 2026-05-05 21:37 | 46.02711 | 8.80924 | 18874 ft | 343 kts | 176° |
| 2026-05-05 21:37 | 46.00346 | 8.81318 | 18425 ft | 339 kts | 177° |
| 2026-05-05 21:37 | 45.98010 | 8.81706 | 17931 ft | 336 kts | 177° |
| 2026-05-05 21:37 | 45.95690 | 8.82091 | 17453 ft | 334 kts | 176° |
| 2026-05-05 21:38 | 45.93407 | 8.82470 | 17024 ft | 334 kts | 176° |
| 2026-05-05 21:38 | 45.91097 | 8.82851 | 16590 ft | 334 kts | 176° |
| 2026-05-05 21:38 | 45.88793 | 8.83232 | 16150 ft | 331 kts | 176° |
| 2026-05-05 21:38 | 45.86522 | 8.83607 | 15876 ft | 327 kts | 176° |
| 2026-05-05 21:39 | 45.84245 | 8.83982 | 15454 ft | 335 kts | 176° |
| 2026-05-05 21:39 | 45.82705 | 8.84235 | 15077 ft | 335 kts | 176° |
| 2026-05-05 21:39 | 45.80403 | 8.84616 | 14570 ft | 325 kts | 176° |
| 2026-05-05 21:39 | 45.78223 | 8.84979 | 14143 ft | 307 kts | 176° |
| 2026-05-05 21:40 | 45.75308 | 8.85457 | 13569 ft | 328 kts | 175° |
| 2026-05-05 21:40 | 45.73060 | 8.85827 | 13098 ft | 322 kts | 175° |
| 2026-05-05 21:40 | 45.71569 | 8.86074 | 12811 ft | 317 kts | 175° |
| 2026-05-05 21:40 | 45.69393 | 8.86434 | 12401 ft | 311 kts | 175° |
| 2026-05-05 21:41 | 45.67324 | 8.86777 | 11996 ft | 284 kts | 175° |
| 2026-05-05 21:41 | 45.65448 | 8.87090 | 11647 ft | 259 kts | 175° |
| 2026-05-05 21:41 | 45.63698 | 8.87378 | 11324 ft | 250 kts | 175° |
| 2026-05-05 21:41 | 45.61990 | 8.87655 | 11012 ft | 250 kts | 175° |
| 2026-05-05 21:42 | 45.60317 | 8.88267 | 10670 ft | 253 kts | 151° |
| 2026-05-05 21:42 | 45.59161 | 8.90134 | 10356 ft | 258 kts | 115° |
| 2026-05-05 21:42 | 45.58987 | 8.92613 | 10028 ft | 253 kts | 78° |
| 2026-05-05 21:42 | 45.59881 | 8.94734 | 9706 ft | 254 kts | 39° |
| 2026-05-05 21:43 | 45.61481 | 8.95675 | 9351 ft | 252 kts | 1° |
| 2026-05-05 21:43 | 45.63122 | 8.95064 | 9056 ft | 244 kts | 322° |
| 2026-05-05 21:43 | 45.64082 | 8.93182 | 8994 ft | 238 kts | 282° |
| 2026-05-05 21:43 | 45.63991 | 8.90850 | 8995 ft | 237 kts | 244° |
| 2026-05-05 21:44 | 45.62926 | 8.89190 | 8990 ft | 228 kts | 205° |
| 2026-05-05 21:44 | 45.61371 | 8.88933 | 8999 ft | 233 kts | 167° |
| 2026-05-05 21:44 | 45.60029 | 8.90192 | 8999 ft | 238 kts | 128° |
| 2026-05-05 21:44 | 45.59328 | 8.92329 | 8990 ft | 244 kts | 99° |
| 2026-05-05 21:45 | 45.59605 | 8.94708 | 8996 ft | 249 kts | 63° |
| 2026-05-05 21:45 | 45.60797 | 8.96430 | 9001 ft | 250 kts | 27° |
| 2026-05-05 21:45 | 45.62385 | 8.97447 | 9002 ft | 252 kts | 22° |
| 2026-05-05 21:45 | 45.64004 | 8.98413 | 8990 ft | 250 kts | 22° |
| 2026-05-05 21:46 | 45.65674 | 8.99031 | 8979 ft | 250 kts | 358° |
| 2026-05-05 21:46 | 45.67301 | 8.98323 | 8997 ft | 245 kts | 322° |
| 2026-05-05 21:46 | 45.68315 | 8.96486 | 8708 ft | 238 kts | 286° |
| 2026-05-05 21:46 | 45.68297 | 8.94201 | 8436 ft | 230 kts | 247° |
| 2026-05-05 21:47 | 45.67281 | 8.92509 | 8119 ft | 227 kts | 208° |
| 2026-05-05 21:47 | 45.65950 | 8.91335 | 8015 ft | 225 kts | 214° |
| 2026-05-05 21:47 | 45.64655 | 8.90050 | 7986 ft | 228 kts | 214° |
| 2026-05-05 21:47 | 45.63329 | 8.88812 | 7983 ft | 227 kts | 210° |
| 2026-05-05 21:48 | 45.62080 | 8.87476 | 7979 ft | 229 kts | 233° |
| 2026-05-05 21:48 | 45.61274 | 8.85544 | 7993 ft | 227 kts | 220° |
| 2026-05-05 21:48 | 45.59823 | 8.84521 | 7830 ft | 233 kts | 211° |
| 2026-05-05 21:48 | 45.58807 | 8.82828 | 7918 ft | 228 kts | 248° |
| 2026-05-05 21:49 | 45.58726 | 8.80590 | 7984 ft | 237 kts | 284° |
| 2026-05-05 21:49 | 45.59628 | 8.78635 | 7995 ft | 241 kts | 321° |
| 2026-05-05 21:49 | 45.61182 | 8.77801 | 8007 ft | 244 kts | 357° |
| 2026-05-05 21:49 | 45.62831 | 8.78322 | 7996 ft | 245 kts | 22° |
| 2026-05-05 21:50 | 45.64432 | 8.79202 | 7985 ft | 247 kts | 20° |
| 2026-05-05 21:50 | 45.66025 | 8.80130 | 7980 ft | 253 kts | 31° |
| 2026-05-05 21:50 | 45.67240 | 8.82038 | 8008 ft | 268 kts | 67° |
| 2026-05-05 21:50 | 45.67492 | 8.84592 | 8004 ft | 259 kts | 102° |
| 2026-05-05 21:51 | 45.66677 | 8.86815 | 8003 ft | 255 kts | 138° |
| 2026-05-05 21:51 | 45.65132 | 8.87939 | 8011 ft | 250 kts | 167° |
| 2026-05-05 21:51 | 45.63420 | 8.88395 | 8000 ft | 251 kts | 173° |
| 2026-05-05 21:51 | 45.61690 | 8.88723 | 7987 ft | 250 kts | 173° |
| 2026-05-05 21:52 | 45.58260 | 8.89353 | 7988 ft | 239 kts | 174° |
| 2026-05-05 21:52 | 45.56651 | 8.89649 | 7988 ft | 228 kts | 174° |
| 2026-05-05 21:52 | 45.55079 | 8.89937 | 8000 ft | 229 kts | 174° |
| 2026-05-05 21:53 | 45.53528 | 8.90221 | 7985 ft | 219 kts | 174° |
| 2026-05-05 21:53 | 45.52034 | 8.90494 | 7998 ft | 216 kts | 174° |
| 2026-05-05 21:53 | 45.50531 | 8.90779 | 7995 ft | 218 kts | 172° |
| 2026-05-05 21:53 | 45.49063 | 8.91148 | 8001 ft | 217 kts | 171° |
| 2026-05-05 21:54 | 45.47561 | 8.91553 | 8002 ft | 217 kts | 171° |
| 2026-05-05 21:54 | 45.46078 | 8.91956 | 7678 ft | 225 kts | 171° |
| 2026-05-05 21:54 | 45.44512 | 8.92380 | 7176 ft | 232 kts | 170° |
| 2026-05-05 21:54 | 45.42930 | 8.92809 | 6795 ft | 230 kts | 170° |
| 2026-05-05 21:55 | 45.41364 | 8.93235 | 6469 ft | 227 kts | 170° |
| 2026-05-05 21:55 | 45.39832 | 8.93652 | 6161 ft | 222 kts | 170° |
| 2026-05-05 21:55 | 45.38342 | 8.94057 | 6000 ft | 212 kts | 170° |
| 2026-05-05 21:55 | 45.36909 | 8.94446 | 5991 ft | 209 kts | 170° |
| 2026-05-05 21:56 | 45.35471 | 8.94835 | 5993 ft | 211 kts | 170° |
| 2026-05-05 21:56 | 45.34028 | 8.95226 | 5992 ft | 211 kts | 171° |
| 2026-05-05 21:56 | 45.32592 | 8.95615 | 5993 ft | 210 kts | 171° |
| 2026-05-05 21:56 | 45.31156 | 8.96004 | 5993 ft | 210 kts | 171° |
| 2026-05-05 21:57 | 45.29718 | 8.96393 | 5989 ft | 210 kts | 171° |
| 2026-05-05 21:57 | 45.28283 | 8.96783 | 5993 ft | 210 kts | 171° |
| 2026-05-05 21:57 | 45.26848 | 8.97172 | 5980 ft | 210 kts | 171° |
| 2026-05-05 21:57 | 45.25411 | 8.97562 | 5979 ft | 210 kts | 171° |
| 2026-05-05 21:58 | 45.23978 | 8.97951 | 5977 ft | 209 kts | 171° |
| 2026-05-05 21:58 | 45.22546 | 8.98340 | 5978 ft | 210 kts | 171° |
| 2026-05-05 21:58 | 45.21128 | 8.98721 | 5977 ft | 210 kts | 171° |
| 2026-05-05 21:58 | 45.19692 | 8.99105 | 5979 ft | 209 kts | 172° |
| 2026-05-05 21:59 | 45.18275 | 8.98886 | 5981 ft | 207 kts | 205° |
| 2026-05-05 21:59 | 45.17220 | 8.97537 | 5988 ft | 209 kts | 239° |
| 2026-05-05 21:59 | 45.16908 | 8.95518 | 5984 ft | 216 kts | 273° |
| 2026-05-05 21:59 | 45.17476 | 8.93560 | 6001 ft | 220 kts | 307° |
| 2026-05-05 22:00 | 45.18744 | 8.92333 | 5995 ft | 226 kts | 338° |
| 2026-05-05 22:00 | 45.20224 | 8.91547 | 5979 ft | 226 kts | 334° |
| 2026-05-05 22:00 | 45.21601 | 8.90535 | 5714 ft | 224 kts | 326° |
| 2026-05-05 22:00 | 45.22883 | 8.89300 | 5446 ft | 221 kts | 321° |
| 2026-05-05 22:01 | 45.24090 | 8.87965 | 5348 ft | 215 kts | 319° |
| 2026-05-05 22:01 | 45.25259 | 8.86583 | 5424 ft | 223 kts | 317° |
| 2026-05-05 22:01 | 45.26502 | 8.85323 | 5464 ft | 223 kts | 333° |
| 2026-05-05 22:01 | 45.27968 | 8.84507 | 5513 ft | 224 kts | 339° |
| 2026-05-05 22:02 | 45.29419 | 8.83830 | 5227 ft | 224 kts | 341° |
| 2026-05-05 22:02 | 45.30904 | 8.83194 | 4967 ft | 222 kts | 342° |
| 2026-05-05 22:02 | 45.32393 | 8.82597 | 4668 ft | 221 kts | 343° |
| 2026-05-05 22:02 | 45.33879 | 8.82029 | 4371 ft | 220 kts | 344° |
| 2026-05-05 22:03 | 45.35352 | 8.81486 | 4100 ft | 218 kts | 345° |
| 2026-05-05 22:03 | 45.36815 | 8.80964 | 4004 ft | 216 kts | 346° |
| 2026-05-05 22:03 | 45.38283 | 8.80462 | 3992 ft | 217 kts | 346° |
| 2026-05-05 22:03 | 45.39754 | 8.79979 | 3990 ft | 213 kts | 347° |
| 2026-05-05 22:04 | 45.41157 | 8.79534 | 3981 ft | 199 kts | 347° |
| 2026-05-05 22:04 | 45.42466 | 8.79131 | 3983 ft | 187 kts | 348° |
| 2026-05-05 22:04 | 45.43717 | 8.78755 | 3996 ft | 186 kts | 348° |
| 2026-05-05 22:04 | 45.44977 | 8.78383 | 4003 ft | 184 kts | 348° |
| 2026-05-05 22:05 | 45.46232 | 8.78020 | 3835 ft | 184 kts | 348° |
| 2026-05-05 22:05 | 45.47487 | 8.77660 | 3601 ft | 185 kts | 349° |
| 2026-05-05 22:05 | 45.48750 | 8.77295 | 3347 ft | 185 kts | 349° |
| 2026-05-05 22:05 | 45.50018 | 8.76926 | 3098 ft | 186 kts | 349° |
| 2026-05-05 22:06 | 45.51294 | 8.76559 | 2839 ft | 187 kts | 349° |
| 2026-05-05 22:06 | 45.52553 | 8.76200 | 2579 ft | 177 kts | 350° |
| 2026-05-05 22:06 | 45.53705 | 8.75911 | 2332 ft | 159 kts | 352° |
| 2026-05-05 22:06 | 45.54746 | 8.75647 | 2120 ft | 146 kts | 351° |
| 2026-05-05 22:07 | 45.55705 | 8.75380 | 1936 ft | 141 kts | 351° |
| 2026-05-05 22:07 | 45.56667 | 8.75114 | 1725 ft | 139 kts | 351° |
| 2026-05-05 22:07 | 45.57608 | 8.74855 | 1529 ft | 136 kts | 350° |
| 2026-05-05 22:07 | 45.58519 | 8.74600 | 1344 ft | 131 kts | 349° |
| 2026-05-05 22:08 | 45.59406 | 8.74345 | 1171 ft | 129 kts | 349° |
| 2026-05-05 22:08 | 45.60289 | 8.74110 | 995 ft | 129 kts | 348° |
| 2026-05-05 22:08 | 45.61165 | 8.73865 | 841 ft | 128 kts | 348° |
| 2026-05-05 22:08 | 45.62038 | 8.73621 | 718 ft | 124 kts | 349° |
| 2026-05-05 22:09 | 45.62675 | 8.73445 | 728 ft | 60 kts | 349° |
| 2026-05-05 22:09 | 45.63053 | 8.73316 | 730 ft | 53 kts | 335° |
| 2026-05-05 22:09 | 45.63303 | 8.72979 | 739 ft | 37 kts | 304° |
| 2026-05-05 22:09 | 45.63390 | 8.72785 | 743 ft | 21 kts | 302° |
| 2026-05-05 22:10 | 45.63506 | 8.72692 | 747 ft | 19 kts | 355° |
| 2026-05-05 22:10 | 45.63628 | 8.72662 | 749 ft | 18 kts | 350° |
| 2026-05-05 22:10 | 45.63746 | 8.72632 | 750 ft | 17 kts | 350° |
| 2026-05-05 22:10 | 45.63857 | 8.72594 | 753 ft | 16 kts | 345° |
| 2026-05-05 22:11 | 45.63943 | 8.72525 | 756 ft | 14 kts | 296° |
| 2026-05-05 22:11 | 45.63938 | 8.72394 | 757 ft | 14 kts | 261° |
| 2026-05-05 22:11 | 45.63923 | 8.72264 | 760 ft | 13 kts | 257° |
| 2026-05-05 22:11 | 45.63910 | 8.72149 | 757 ft | 12 kts | 268° |
| 2026-05-05 22:12 | 45.63908 | 8.72027 | 759 ft | 13 kts | 268° |
| 2026-05-05 22:12 | 45.63891 | 8.71886 | 761 ft | 20 kts | 240° |
| 2026-05-05 22:12 | 45.63712 | 8.71850 | 755 ft | 25 kts | 168° |
| 2026-05-05 22:12 | 45.63527 | 8.71897 | 752 ft | 26 kts | 170° |
| 2026-05-05 22:13 | 45.63378 | 8.71935 | 750 ft | 18 kts | 170° |
| 2026-05-05 22:13 | 45.63305 | 8.71853 | 748 ft | 16 kts | 255° |
| 2026-05-05 22:13 | 45.63278 | 8.71696 | 747 ft | 16 kts | 227° |
| 2026-05-05 22:13 | 45.63162 | 8.71688 | 743 ft | 19 kts | 169° |
| 2026-05-05 22:14 | 45.63022 | 8.71724 | 741 ft | 22 kts | 169° |
| 2026-05-05 22:14 | 45.62871 | 8.71763 | 739 ft | 16 kts | 169° |
| 2026-05-05 22:14 | 45.62825 | 8.71698 | 737 ft | 11 kts | 258° |
| 2026-05-05 22:14 | 45.62819 | 8.71667 | 738 ft | 0 kts | 255° |